Time;durP1;ratioP1;P1;durP2;ratioP2;P2;SDS_P1;SDS_P2;PMS_P1;PMS_P2;Temp;Humidity;BMP_temperature;BMP_pressure;BME280_temperature;BME280_humidity;BME280_pressure;Samples;Min_cycle;Max_cycle;Signal;HPM_P1;HPM_P2
2022/11/08 00:01:41;;;;;;;7.57;2.80;;;11.90;99.90;;;;;;5034305;28;20230;-59
2022/11/08 00:04:10;;;;;;;6.80;2.43;;;11.90;99.90;;;;;;5034440;28;20206;-59
2022/11/08 00:14:51;;;;;;;5.77;2.33;;;11.80;99.90;;;;;;5033876;28;20253;-60
2022/11/08 00:17:20;;;;;;;7.37;2.30;;;11.80;99.90;;;;;;5033998;28;20206;-56
2022/11/08 00:19:46;;;;;;;4.60;2.13;;;11.90;99.90;;;;;;5033982;28;20242;-59
2022/11/08 00:22:14;;;;;;;8.47;2.40;;;11.80;99.90;;;;;;5034010;28;20231;-59
2022/11/08 00:24:42;;;;;;;6.77;2.37;;;11.70;99.90;;;;;;5033989;28;20215;-59
2022/11/08 00:27:11;;;;;;;5.27;2.30;;;11.70;99.90;;;;;;5033784;28;20214;-58
2022/11/08 00:29:38;;;;;;;6.83;3.07;;;11.70;99.90;;;;;;5033858;28;20210;-58
2022/11/08 00:32:09;;;;;;;6.17;2.37;;;11.70;99.90;;;;;;5033508;28;20222;-55
2022/11/08 00:34:35;;;;;;;3.40;2.10;;;11.70;99.90;;;;;;5033816;28;20212;-58
2022/11/08 00:37:03;;;;;;;9.13;2.23;;;11.70;99.90;;;;;;5033278;28;20216;-60
2022/11/08 00:39:29;;;;;;;4.47;2.33;;;11.70;99.90;;;;;;5033988;28;20260;-58
2022/11/08 00:41:56;;;;;;;5.17;2.37;;;11.80;99.90;;;;;;5033551;28;20235;-59
2022/11/08 00:44:22;;;;;;;8.83;2.17;;;11.80;99.90;;;;;;5033681;28;20272;-59
2022/11/08 00:46:49;;;;;;;7.17;2.30;;;11.90;99.90;;;;;;5033303;28;20274;-59
2022/11/08 00:49:17;;;;;;;6.40;2.63;;;12.00;99.90;;;;;;5033173;28;20692;-59
2022/11/08 00:51:44;;;;;;;8.23;2.57;;;12.00;99.90;;;;;;5033232;28;20224;-59
2022/11/08 00:54:14;;;;;;;6.67;2.20;;;12.00;99.90;;;;;;5033588;28;20232;-58
2022/11/08 00:56:40;;;;;;;5.90;2.50;;;12.10;99.90;;;;;;5032885;28;20704;-59
2022/11/08 00:59:07;;;;;;;6.43;1.93;;;12.10;99.90;;;;;;5033297;28;20206;-58
2022/11/08 01:01:34;;;;;;;3.30;2.00;;;12.10;99.90;;;;;;5033062;28;20236;-59
2022/11/08 01:04:01;;;;;;;4.47;1.77;;;12.20;99.90;;;;;;5033118;28;20206;-59
2022/11/08 01:06:30;;;;;;;6.20;2.00;;;12.20;99.90;;;;;;5032727;28;20210;-58
2022/11/08 01:08:57;;;;;;;5.77;2.40;;;12.20;99.90;;;;;;5033351;28;20332;-59
2022/11/08 01:11:25;;;;;;;6.47;2.17;;;12.20;99.90;;;;;;5032816;28;20751;-59
2022/11/08 01:13:55;;;;;;;4.07;1.73;;;12.30;99.90;;;;;;5033053;28;20230;-59
2022/11/08 01:16:24;;;;;;;5.53;2.13;;;12.40;99.90;;;;;;5032779;28;20278;-59
2022/11/08 01:18:52;;;;;;;6.97;1.87;;;12.40;99.90;;;;;;5032846;28;20231;-59
2022/11/08 01:21:19;;;;;;;5.63;1.53;;;12.40;99.90;;;;;;5032750;28;20236;-59
2022/11/08 01:23:47;;;;;;;6.03;1.67;;;12.40;99.90;;;;;;5033036;28;20252;-59
2022/11/08 01:26:16;;;;;;;3.10;1.70;;;12.40;99.90;;;;;;5032803;28;20691;-57
2022/11/08 01:28:42;;;;;;;7.27;2.00;;;12.40;99.90;;;;;;5032848;28;20280;-55
2022/11/08 01:31:11;;;;;;;8.37;1.60;;;12.40;99.90;;;;;;5032398;28;20213;-58
2022/11/08 01:33:38;;;;;;;5.70;2.10;;;12.40;99.90;;;;;;5032919;28;20276;-58
2022/11/08 01:36:06;;;;;;;5.97;1.73;;;12.40;99.90;;;;;;5032529;28;20300;-58
2022/11/08 01:38:34;;;;;;;3.97;1.80;;;12.40;99.90;;;;;;5032735;28;20209;-58
2022/11/08 01:41:02;;;;;;;3.50;1.57;;;12.40;99.90;;;;;;5032482;28;20275;-54
2022/11/08 01:43:38;;;;;;;4.97;2.00;;;12.40;99.90;;;;;;5031977;28;20226;-59
2022/11/08 01:46:36;;;;;;;4.77;2.07;;;12.40;99.90;;;;;;5032503;28;20194;-59
2022/11/08 01:49:17;;;;;;;6.10;1.97;;;12.50;99.90;;;;;;5032580;28;20213;-59
2022/11/08 01:51:48;;;;;;;6.67;1.53;;;12.50;99.90;;;;;;5032337;28;20308;-59
2022/11/08 01:54:19;;;;;;;3.93;1.77;;;12.50;99.90;;;;;;5032395;28;20232;-58
2022/11/08 01:56:48;;;;;;;6.57;1.90;;;12.50;99.90;;;;;;5032222;28;20213;-59
2022/11/08 01:59:16;;;;;;;7.17;2.00;;;12.60;99.90;;;;;;5032331;28;20202;-59
2022/11/08 02:01:43;;;;;;;4.20;1.73;;;12.60;99.90;;;;;;5032105;28;20230;-58
2022/11/08 02:04:12;;;;;;;4.80;2.00;;;12.60;99.90;;;;;;5032321;28;20221;-59
2022/11/08 02:06:40;;;;;;;5.47;2.07;;;12.60;99.90;;;;;;5031623;28;20208;-58
2022/11/08 02:09:10;;;;;;;6.37;1.80;;;12.70;99.90;;;;;;5032267;28;20241;-59
2022/11/08 02:11:37;;;;;;;3.10;1.60;;;12.70;99.90;;;;;;5032096;28;20256;-57
2022/11/08 02:14:06;;;;;;;5.93;1.73;;;12.70;99.90;;;;;;5032083;28;20225;-59
2022/11/08 02:16:33;;;;;;;6.60;1.90;;;12.60;99.90;;;;;;5031773;28;20210;-59
2022/11/08 02:19:00;;;;;;;4.57;1.60;;;12.60;99.90;;;;;;5032064;28;20210;-58
2022/11/08 02:21:30;;;;;;;5.00;1.60;;;12.60;99.90;;;;;;5032060;28;20696;-59
2022/11/08 02:24:00;;;;;;;3.57;1.23;;;12.60;99.90;;;;;;5031805;28;20202;-59
2022/11/08 02:26:29;;;;;;;3.87;1.67;;;12.70;99.90;;;;;;5031842;28;20206;-58
2022/11/08 02:28:56;;;;;;;3.93;1.33;;;12.70;99.90;;;;;;5032023;28;20209;-57
2022/11/08 02:31:23;;;;;;;4.80;1.47;;;12.70;99.90;;;;;;5031888;28;20214;-59
2022/11/08 02:33:50;;;;;;;4.43;1.90;;;12.80;97.00;;;;;;5031806;28;20271;-59
2022/11/08 02:36:20;;;;;;;5.90;1.50;;;12.80;93.70;;;;;;5031738;28;20264;-59
2022/11/08 02:38:50;;;;;;;3.67;1.60;;;12.80;91.20;;;;;;5032174;28;20209;-59
2022/11/08 02:41:18;;;;;;;6.33;1.77;;;12.80;83.60;;;;;;5031483;28;20569;-59
2022/11/08 02:43:45;;;;;;;4.33;1.70;;;12.80;73.90;;;;;;5031779;28;20213;-59
2022/11/08 02:46:11;;;;;;;5.00;1.80;;;12.90;68.40;;;;;;5031389;28;20217;-59
2022/11/08 02:48:38;;;;;;;3.47;1.43;;;12.90;47.40;;;;;;5031943;28;20210;-59
2022/11/08 02:51:05;;;;;;;2.60;1.10;;;12.90;46.80;;;;;;5031715;28;20770;-58
2022/11/08 02:53:32;;;;;;;2.80;1.10;;;12.80;47.50;;;;;;5031602;28;20237;-59
2022/11/08 02:55:59;;;;;;;4.47;1.53;;;12.80;44.30;;;;;;5034374;28;20634;-59
2022/11/08 02:58:27;;;;;;;3.77;1.80;;;12.80;44.30;;;;;;5035505;28;20206;-58
2022/11/08 03:00:53;;;;;;;3.30;1.20;;;12.70;41.20;;;;;;5035602;28;20206;-53
2022/11/08 03:03:20;;;;;;;3.40;1.20;;;12.70;45.90;;;;;;5035755;28;20221;-55
2022/11/08 03:05:47;;;;;;;2.13;1.50;;;12.60;51.70;;;;;;5035728;28;20214;-53
2022/11/08 03:08:14;;;;;;;5.93;1.73;;;12.50;59.30;;;;;;5035318;28;20301;-55
2022/11/08 03:10:41;;;;;;;4.63;1.43;;;12.50;62.10;;;;;;5035306;28;20206;-52
2022/11/08 03:13:07;;;;;;;5.57;1.90;;;12.50;68.10;;;;;;5035119;28;20674;-53
2022/11/08 03:15:35;;;;;;;7.97;1.73;;;12.50;71.10;;;;;;5035366;28;20210;-58
2022/11/08 03:18:02;;;;;;;7.20;1.40;;;12.50;73.30;;;;;;5035215;28;20302;-56
2022/11/08 03:20:29;;;;;;;3.03;1.37;;;12.50;75.90;;;;;;5035332;28;20264;-57
2022/11/08 03:22:59;;;;;;;5.67;1.70;;;12.40;70.00;;;;;;5035122;28;20230;-56
2022/11/08 03:25:26;;;;;;;2.90;1.30;;;12.40;75.70;;;;;;5035220;28;20646;-54
2022/11/08 03:27:52;;;;;;;5.73;1.37;;;12.30;79.60;;;;;;5034788;28;20214;-58
2022/11/08 03:30:19;;;;;;;5.03;2.00;;;12.30;85.10;;;;;;5035047;28;20209;-59
2022/11/08 03:32:48;;;;;;;4.03;1.60;;;12.20;91.50;;;;;;5034823;28;20230;-56
2022/11/08 03:35:15;;;;;;;2.47;1.37;;;12.20;96.00;;;;;;5034839;28;20279;-59
2022/11/08 03:37:49;;;;;;;4.00;2.03;;;12.10;99.20;;;;;;5034667;28;20264;-59
2022/11/08 03:40:16;;;;;;;9.03;1.90;;;12.00;99.90;;;;;;5034708;28;20253;-56
2022/11/08 03:42:43;;;;;;;3.73;1.43;;;11.90;99.90;;;;;;5034447;28;20235;-59
2022/11/08 03:45:10;;;;;;;4.83;1.60;;;11.80;99.90;;;;;;5034976;28;20260;-57
2022/11/08 03:47:37;;;;;;;3.23;1.40;;;11.80;99.90;;;;;;5034625;28;20210;-58
2022/11/08 03:50:06;;;;;;;5.70;1.77;;;11.80;99.90;;;;;;5034789;28;20230;-56
2022/11/08 03:52:40;;;;;;;4.17;1.53;;;11.70;99.90;;;;;;5034499;28;20232;-58
2022/11/08 03:55:08;;;;;;;4.83;1.90;;;11.70;99.90;;;;;;5034478;28;20306;-58
2022/11/08 03:57:35;;;;;;;3.73;1.93;;;11.70;99.90;;;;;;5034395;28;20297;-57
2022/11/08 04:00:01;;;;;;;3.93;1.70;;;11.60;99.90;;;;;;5034580;28;20209;-57
2022/11/08 04:02:28;;;;;;;3.20;1.90;;;11.60;99.90;;;;;;5034362;28;20224;-55
2022/11/08 04:04:55;;;;;;;2.47;1.67;;;11.50;99.90;;;;;;5034333;28;20755;-58
2022/11/08 04:07:23;;;;;;;7.57;2.20;;;11.40;99.90;;;;;;5033252;28;20215;-54
2022/11/08 04:09:49;;;;;;;2.90;1.77;;;11.40;99.90;;;;;;5034533;28;20203;-57
2022/11/08 04:15:15;;;;;;;4.30;1.70;;;11.40;99.90;;;;;;5034251;28;20228;-58
2022/11/08 04:23:13;;;;;;;4.50;1.30;;;11.20;99.90;;;;;;5033902;28;20333;-59
2022/11/08 04:25:39;;;;;;;6.67;1.90;;;11.20;99.90;;;;;;5034066;28;20206;-59
2022/11/08 04:28:06;;;;;;;3.97;1.70;;;11.20;99.90;;;;;;5033615;28;20620;-59
2022/11/08 04:30:33;;;;;;;6.20;1.90;;;11.20;99.90;;;;;;5033838;28;20213;-59
2022/11/08 04:33:01;;;;;;;4.13;1.70;;;11.10;99.90;;;;;;5033875;28;20234;-59
2022/11/08 04:35:28;;;;;;;4.53;1.43;;;11.10;99.90;;;;;;5033617;28;20325;-58
2022/11/08 04:37:58;;;;;;;7.90;1.60;;;11.10;99.90;;;;;;5033439;28;20624;-58
2022/11/08 04:40:26;;;;;;;4.97;1.90;;;11.00;99.90;;;;;;5033675;28;20207;-57
2022/11/08 04:42:53;;;;;;;5.03;1.80;;;11.00;99.90;;;;;;5033337;28;20740;-57
2022/11/08 04:45:19;;;;;;;3.83;1.83;;;11.00;99.90;;;;;;5033922;28;20572;-59
2022/11/08 04:47:46;;;;;;;5.33;2.07;;;11.00;99.90;;;;;;5033268;28;20206;-58
2022/11/08 04:50:13;;;;;;;5.20;2.10;;;11.00;99.90;;;;;;5033614;28;20214;-59
2022/11/08 04:52:40;;;;;;;4.27;1.87;;;11.00;99.90;;;;;;5033362;28;20293;-59
2022/11/08 04:55:08;;;;;;;6.53;2.00;;;11.00;99.90;;;;;;5033116;28;20268;-58
2022/11/08 04:57:36;;;;;;;5.73;2.60;;;10.90;99.90;;;;;;5032886;28;20727;-59
2022/11/08 05:00:04;;;;;;;3.07;2.10;;;10.80;99.90;;;;;;5033358;28;20217;-59
2022/11/08 05:02:30;;;;;;;5.90;1.60;;;10.80;99.90;;;;;;5033335;28;20234;-59
2022/11/08 05:04:57;;;;;;;3.83;1.70;;;10.80;99.90;;;;;;5033285;28;20198;-57
2022/11/08 05:07:24;;;;;;;4.13;1.97;;;10.80;99.90;;;;;;5032924;28;20290;-58
2022/11/08 05:09:50;;;;;;;4.80;1.70;;;10.80;99.90;;;;;;5033311;28;20589;-59
2022/11/08 05:12:17;;;;;;;3.33;1.43;;;10.80;99.90;;;;;;5033548;28;20226;-59
2022/11/08 05:14:45;;;;;;;3.43;1.87;;;10.90;99.90;;;;;;5033125;28;20226;-58
2022/11/08 05:17:12;;;;;;;6.20;1.80;;;10.90;99.90;;;;;;5033007;28;20268;-58
2022/11/08 05:25:07;;;;;;;2.97;1.93;;;10.80;99.90;;;;;;5032877;28;20282;-58
2022/11/08 05:27:34;;;;;;;5.80;1.87;;;10.80;99.90;;;;;;5032853;28;20237;-56
2022/11/08 05:30:03;;;;;;;6.07;1.60;;;10.80;99.90;;;;;;5032839;28;20210;-56
2022/11/08 05:32:30;;;;;;;3.40;2.40;;;10.80;99.90;;;;;;5032736;28;20226;-58
2022/11/08 05:34:56;;;;;;;4.80;2.33;;;10.80;99.90;;;;;;5032382;28;20226;-58
2022/11/08 05:37:23;;;;;;;6.37;1.97;;;10.80;99.90;;;;;;5032780;28;20241;-58
2022/11/08 05:39:50;;;;;;;6.83;2.53;;;10.80;99.90;;;;;;5032693;28;20210;-58
2022/11/08 05:42:16;;;;;;;3.90;1.83;;;10.90;99.90;;;;;;5032500;28;20668;-58
2022/11/08 05:44:43;;;;;;;3.07;2.00;;;10.90;99.90;;;;;;5032426;28;20704;-58
2022/11/08 05:47:11;;;;;;;4.87;2.30;;;10.90;99.90;;;;;;5032312;28;20206;-56
2022/11/08 05:49:38;;;;;;;4.63;1.97;;;10.80;99.90;;;;;;5032196;28;20257;-58
2022/11/08 05:52:04;;;;;;;3.10;1.90;;;10.90;99.90;;;;;;5032514;28;20230;-57
2022/11/08 05:54:31;;;;;;;4.50;1.97;;;10.90;99.90;;;;;;5032074;28;20227;-58
2022/11/08 05:56:58;;;;;;;5.17;2.27;;;10.90;99.90;;;;;;5032288;28;20206;-57
2022/11/08 05:59:25;;;;;;;5.37;1.97;;;10.90;99.90;;;;;;5032104;28;20203;-55
2022/11/08 06:01:51;;;;;;;4.63;2.07;;;10.80;99.90;;;;;;5032213;28;20226;-57
2022/11/08 06:04:19;;;;;;;3.07;1.83;;;10.80;99.90;;;;;;5031905;28;20217;-58
2022/11/08 06:06:46;;;;;;;3.43;1.90;;;10.80;99.90;;;;;;5032260;28;20210;-58
2022/11/08 06:09:12;;;;;;;5.63;1.77;;;10.80;99.90;;;;;;5032177;28;20210;-58
2022/11/08 06:11:39;;;;;;;4.33;1.80;;;10.80;99.90;;;;;;5032125;28;20645;-56
2022/11/08 06:14:06;;;;;;;3.97;1.70;;;10.80;99.90;;;;;;5031888;28;20226;-56
2022/11/08 06:16:32;;;;;;;2.43;1.20;;;10.80;99.90;;;;;;5031693;28;20210;-59
2022/11/08 06:18:59;;;;;;;5.07;2.47;;;10.80;99.90;;;;;;5032201;28;20214;-54
2022/11/08 06:21:27;;;;;;;4.17;1.80;;;10.90;99.90;;;;;;5031699;28;20739;-57
2022/11/08 06:23:54;;;;;;;3.60;1.80;;;10.90;99.90;;;;;;5031618;28;20293;-57
2022/11/08 06:26:21;;;;;;;1.77;1.57;;;11.00;99.90;;;;;;5031830;28;20210;-57
2022/11/08 06:28:48;;;;;;;6.83;1.77;;;11.00;99.90;;;;;;5031814;28;20210;-55
2022/11/08 06:31:14;;;;;;;2.40;1.40;;;11.10;99.10;;;;;;5031148;28;20260;-57
2022/11/08 06:33:41;;;;;;;2.23;1.40;;;11.10;93.10;;;;;;5031695;28;20712;-57
2022/11/08 06:36:08;;;;;;;2.87;1.37;;;11.20;81.70;;;;;;5031495;28;20230;-58
2022/11/08 06:38:36;;;;;;;2.90;1.57;;;11.30;66.80;;;;;;5031945;28;20213;-56
2022/11/08 06:41:02;;;;;;;2.10;1.57;;;11.30;58.50;;;;;;5031582;28;20743;-57
2022/11/08 06:43:29;;;;;;;3.10;1.73;;;11.30;49.00;;;;;;5031591;28;20778;-57
2022/11/08 06:46:00;;;;;;;1.50;1.37;;;11.30;44.20;;;;;;5031286;28;20206;-57
2022/11/08 06:48:27;;;;;;;3.97;1.40;;;11.40;25.60;;;;;;5031794;28;20210;-57
2022/11/08 06:50:54;;;;;;;2.83;1.40;;;11.50;14.30;;;;;;5031648;28;20260;-57
2022/11/08 06:53:21;;;;;;;2.83;1.60;;;11.50;6.80;;;;;;5031701;28;20230;-57
2022/11/08 06:55:49;;;;;;;4.47;1.40;;;11.60;1.00;;;;;;5031577;28;20228;-57
2022/11/08 06:58:15;;;;;;;2.43;1.03;;;11.60;1.00;;;;;;5031570;28;20207;-57
2022/11/08 07:00:42;;;;;;;2.63;1.30;;;11.70;1.00;;;;;;5031627;28;20284;-55
2022/11/08 07:03:09;;;;;;;4.57;1.47;;;11.90;1.00;;;;;;5031656;28;20222;-57
2022/11/08 07:05:36;;;;;;;2.03;1.13;;;11.90;1.00;;;;;;5031450;28;20203;-58
2022/11/08 07:08:03;;;;;;;2.37;1.30;;;11.90;1.00;;;;;;5031507;28;20210;-57
2022/11/08 07:10:33;;;;;;;4.73;1.50;;;12.00;1.00;;;;;;5031581;28;20263;-56
2022/11/08 07:13:03;;;;;;;2.83;1.20;;;12.00;1.00;;;;;;5031526;28;20576;-57
2022/11/08 07:15:31;;;;;;;2.40;1.10;;;12.10;1.00;;;;;;5031623;28;20575;-57
2022/11/08 07:18:00;;;;;;;4.30;1.47;;;12.10;1.00;;;;;;5031163;28;20723;-57
2022/11/08 07:20:27;;;;;;;1.87;1.17;;;12.20;1.00;;;;;;5031260;28;20208;-57
2022/11/08 07:22:55;;;;;;;3.43;1.57;;;12.30;1.00;;;;;;5031211;28;20766;-56
2022/11/08 07:25:21;;;;;;;3.90;1.33;;;12.30;1.00;;;;;;5031107;28;20199;-58
2022/11/08 07:27:48;;;;;;;4.33;1.37;;;12.40;1.00;;;;;;5031242;28;20217;-56
2022/11/08 07:30:16;;;;;;;2.57;1.03;;;12.50;1.00;;;;;;5031788;28;20210;-55
2022/11/08 07:32:42;;;;;;;1.93;1.37;;;12.50;1.00;;;;;;5031399;28;20280;-57
2022/11/08 07:35:09;;;;;;;3.07;1.40;;;12.50;1.00;;;;;;5031099;28;20225;-57
2022/11/08 07:37:36;;;;;;;2.83;1.10;;;12.50;1.00;;;;;;5031095;28;20688;-53
2022/11/08 07:40:03;;;;;;;2.57;1.30;;;12.60;1.00;;;;;;5031132;28;20259;-55
2022/11/08 07:42:29;;;;;;;3.07;1.37;;;12.60;1.00;;;;;;5032805;28;20237;-57
2022/11/08 07:44:56;;;;;;;2.93;1.20;;;12.60;1.00;;;;;;5034835;28;20208;-57
2022/11/08 07:47:24;;;;;;;3.43;1.00;;;12.60;1.00;;;;;;5034505;28;20206;-54
2022/11/08 07:49:51;;;;;;;3.90;1.67;;;12.70;1.00;;;;;;5034636;28;20229;-55
2022/11/08 07:52:17;;;;;;;2.30;1.30;;;12.70;1.00;;;;;;5034607;28;20230;-55
2022/11/08 07:54:44;;;;;;;2.07;1.07;;;12.70;1.00;;;;;;5034413;28;20244;-55
2022/11/08 07:57:10;;;;;;;2.93;1.30;;;12.80;1.00;;;;;;5034449;28;20279;-57
2022/11/08 07:59:37;;;;;;;4.27;1.23;;;12.80;1.00;;;;;;5034666;28;20265;-58
2022/11/08 08:02:04;;;;;;;1.27;1.10;;;12.80;1.00;;;;;;5034448;28;20295;-58
2022/11/08 08:04:32;;;;;;;2.00;1.20;;;12.80;1.00;;;;;;5034422;28;20743;-58
2022/11/08 08:06:59;;;;;;;1.70;1.20;;;12.90;99.90;;;;;;5034005;28;20243;-55
2022/11/08 08:09:25;;;;;;;1.33;0.90;;;12.90;99.90;;;;;;5034076;28;20746;-57
2022/11/08 08:11:52;;;;;;;3.00;1.00;;;12.90;99.90;;;;;;5034422;28;20272;-57
2022/11/08 08:14:18;;;;;;;2.63;1.03;;;13.00;99.90;;;;;;5034383;28;20217;-58
2022/11/08 08:16:46;;;;;;;1.53;1.10;;;13.10;99.90;;;;;;5033912;28;20226;-55
2022/11/08 08:19:12;;;;;;;2.70;0.97;;;13.10;99.90;;;;;;5033901;28;20206;-56
2022/11/08 08:21:40;;;;;;;2.63;1.17;;;13.20;1.00;;;;;;5033765;28;20276;-57
2022/11/08 08:24:07;;;;;;;2.73;1.13;;;13.30;1.00;;;;;;5034143;28;20230;-58
2022/11/08 08:26:34;;;;;;;1.37;1.00;;;13.40;99.90;;;;;;5033592;28;20252;-57
2022/11/08 08:29:01;;;;;;;3.27;1.17;;;13.60;1.00;;;;;;5033976;28;20237;-58
2022/11/08 08:31:27;;;;;;;2.80;1.03;;;13.70;99.90;;;;;;5033928;28;20629;-58
2022/11/08 08:33:54;;;;;;;2.37;1.33;;;13.70;99.90;;;;;;5033824;28;20257;-58
2022/11/08 08:36:21;;;;;;;1.93;0.90;;;13.80;99.90;;;;;;5033371;28;20641;-55
2022/11/08 08:38:48;;;;;;;3.00;1.03;;;13.90;99.90;;;;;;5033524;28;20206;-57
2022/11/08 08:41:15;;;;;;;2.20;1.00;;;13.90;99.90;;;;;;5033691;28;20862;-57
2022/11/08 08:43:42;;;;;;;2.60;0.97;;;13.90;99.90;;;;;;5033765;28;20601;-57
2022/11/08 08:46:08;;;;;;;1.37;1.00;;;13.90;99.90;;;;;;5033454;28;20202;-58
2022/11/08 08:48:37;;;;;;;3.87;1.13;;;13.90;1.00;;;;;;5033689;28;20203;-58
2022/11/08 08:51:04;;;;;;;2.10;1.10;;;13.90;1.00;;;;;;5033627;28;20214;-59
2022/11/08 08:53:30;;;;;;;2.50;1.03;;;14.00;99.90;;;;;;5033492;28;20280;-58
2022/11/08 08:55:58;;;;;;;2.90;1.50;;;14.00;97.50;;;;;;5033236;28;20226;-57
2022/11/08 08:58:25;;;;;;;3.23;1.50;;;13.90;99.90;;;;;;5033622;28;20214;-59
2022/11/08 09:00:51;;;;;;;2.17;1.20;;;13.90;99.90;;;;;;5033201;28;20256;-59
2022/11/08 09:03:18;;;;;;;1.23;0.90;;;14.00;99.90;;;;;;5033289;28;20782;-57
2022/11/08 09:05:45;;;;;;;3.70;1.20;;;13.90;99.90;;;;;;5033356;28;20276;-57
2022/11/08 09:08:13;;;;;;;2.63;1.30;;;13.90;1.00;;;;;;5033292;28;20206;-58
2022/11/08 09:10:39;;;;;;;1.33;1.07;;;14.00;1.00;;;;;;5033389;28;20206;-58
2022/11/08 09:13:07;;;;;;;1.67;0.90;;;13.90;1.00;;;;;;5033135;28;20288;-58
2022/11/08 09:15:34;;;;;;;1.40;1.00;;;14.00;99.90;;;;;;5032931;28;20280;-57
2022/11/08 09:18:01;;;;;;;3.90;1.10;;;14.10;1.00;;;;;;5032673;28;20210;-58
2022/11/08 09:20:27;;;;;;;1.73;1.10;;;14.20;1.00;;;;;;5032976;28;20202;-59
2022/11/08 09:22:54;;;;;;;1.60;0.90;;;14.20;99.90;;;;;;5032963;28;20308;-57
2022/11/08 09:25:21;;;;;;;2.47;1.13;;;14.20;99.90;;;;;;5033004;28;20206;-58
2022/11/08 09:27:47;;;;;;;2.30;1.17;;;14.20;99.90;;;;;;5032647;28;20261;-58
2022/11/08 09:30:15;;;;;;;4.13;1.50;;;14.30;1.00;;;;;;5032756;28;20284;-58
2022/11/08 09:32:42;;;;;;;2.87;1.00;;;14.30;99.90;;;;;;5032518;28;20230;-59
2022/11/08 09:35:08;;;;;;;2.23;1.10;;;14.40;24.40;;;;;;5032805;28;20256;-58
2022/11/08 09:37:35;;;;;;;1.30;0.80;;;14.40;99.90;;;;;;5032542;28;20206;-59
2022/11/08 09:40:02;;;;;;;1.83;0.90;;;14.40;99.90;;;;;;5032703;28;20206;-58
2022/11/08 09:42:42;;;;;;;1.50;0.90;;;14.40;99.90;;;;;;5032370;28;20234;-58
2022/11/08 09:45:20;;;;;;;4.30;1.10;;;14.50;99.90;;;;;;5032594;28;20239;-57
2022/11/08 09:47:50;;;;;;;4.33;1.40;;;14.60;99.90;;;;;;5032107;28;20704;-58
2022/11/08 09:50:21;;;;;;;2.13;1.07;;;14.60;99.90;;;;;;5032570;28;20214;-56
2022/11/08 09:52:54;;;;;;;3.10;1.00;;;14.70;55.50;;;;;;5032423;28;20716;-58
2022/11/08 09:55:28;;;;;;;2.03;0.97;;;14.70;92.80;;;;;;5032277;28;20238;-55
2022/11/08 09:58:03;;;;;;;1.63;1.13;;;14.70;57.80;;;;;;5032061;28;20210;-57
2022/11/08 10:00:33;;;;;;;2.53;1.17;;;14.70;16.10;;;;;;5032279;28;20210;-59
2022/11/08 10:03:02;;;;;;;3.77;1.30;;;14.60;50.50;;;;;;5032259;28;20234;-57
2022/11/08 10:05:38;;;;;;;2.90;1.27;;;14.70;44.40;;;;;;5031679;28;20206;-58
2022/11/08 10:08:10;;;;;;;2.10;0.90;;;14.70;85.70;;;;;;5031924;28;20305;-59
2022/11/08 10:10:45;;;;;;;3.40;1.27;;;14.70;1.00;;;;;;5032311;28;20620;-58
2022/11/08 10:13:18;;;;;;;3.73;1.30;;;14.70;42.50;;;;;;5031958;28;20229;-57
2022/11/08 10:15:54;;;;;;;1.87;1.20;;;14.60;39.00;;;;;;5031970;28;20229;-57
2022/11/08 10:18:34;;;;;;;0.80;0.70;;;14.60;83.00;;;;;;5031920;28;20205;-58
2022/11/08 10:21:09;;;;;;;1.50;1.10;;;14.70;14.00;;;;;;5032076;28;20206;-58
2022/11/08 10:23:43;;;;;;;5.07;1.20;;;14.70;44.10;;;;;;5031963;28;20209;-58
2022/11/08 10:26:14;;;;;;;2.60;1.20;;;14.60;63.10;;;;;;5031775;28;20236;-58
2022/11/08 10:28:46;;;;;;;1.80;1.03;;;14.60;23.90;;;;;;5031743;28;20209;-58
2022/11/08 10:31:14;;;;;;;2.00;1.03;;;14.60;6.80;;;;;;5031695;28;20297;-58
2022/11/08 10:33:46;;;;;;;2.47;1.20;;;14.60;43.40;;;;;;5031932;28;20272;-58
2022/11/08 10:36:18;;;;;;;2.23;1.00;;;14.60;98.90;;;;;;5031373;28;20284;-57
2022/11/08 10:38:51;;;;;;;3.70;1.30;;;14.60;4.10;;;;;;5031742;28;20218;-59
2022/11/08 10:41:21;;;;;;;5.53;1.30;;;14.60;59.10;;;;;;5031627;28;20252;-58
2022/11/08 10:43:51;;;;;;;1.60;1.10;;;14.60;58.70;;;;;;5031802;28;20210;-58
2022/11/08 10:46:36;;;;;;;2.40;1.27;;;14.70;83.30;;;;;;5031641;28;20276;-58
2022/11/08 10:49:11;;;;;;;1.93;1.13;;;14.70;15.10;;;;;;5031626;28;20738;-58
2022/11/08 10:51:38;;;;;;;5.00;1.10;;;14.70;13.60;;;;;;5031368;28;20283;-58
2022/11/08 10:54:05;;;;;;;2.47;1.30;;;14.70;1.00;;;;;;5031789;28;20202;-57
2022/11/08 10:56:36;;;;;;;2.93;1.10;;;14.70;1.00;;;;;;5031497;28;20230;-58
2022/11/08 10:59:03;;;;;;;4.03;1.20;;;14.70;1.00;;;;;;5031394;28;20229;-58
2022/11/08 11:01:31;;;;;;;1.50;1.10;;;14.70;1.00;;;;;;5031498;28;20206;-57
2022/11/08 11:03:58;;;;;;;1.50;1.10;;;14.70;1.00;;;;;;5031515;28;20276;-58
2022/11/08 11:06:28;;;;;;;2.77;1.50;;;14.70;1.00;;;;;;5030981;28;20566;-58
2022/11/08 11:08:57;;;;;;;1.97;1.30;;;14.70;1.00;;;;;;5031665;28;20297;-58
2022/11/08 11:11:26;;;;;;;1.43;1.30;;;14.70;1.00;;;;;;5031560;28;20206;-58
2022/11/08 11:14:08;;;;;;;1.93;1.20;;;14.60;1.00;;;;;;5031485;28;20206;-58
2022/11/08 11:16:37;;;;;;;2.97;1.50;;;14.70;1.00;;;;;;5031347;28;20226;-57
2022/11/08 11:19:06;;;;;;;2.03;1.07;;;14.60;1.00;;;;;;5035470;28;20233;-58
2022/11/08 11:21:37;;;;;;;5.53;1.37;;;14.60;1.00;;;;;;5035144;28;20712;-58
2022/11/08 11:24:09;;;;;;;1.33;1.20;;;14.60;1.00;;;;;;5035071;28;20669;-58
2022/11/08 11:26:41;;;;;;;2.87;1.60;;;14.70;1.00;;;;;;5035031;28;20199;-59
2022/11/08 11:29:17;;;;;;;4.60;1.30;;;14.70;1.00;;;;;;5034706;28;20210;-58
2022/11/08 11:31:47;;;;;;;4.20;1.67;;;14.60;1.00;;;;;;5035236;28;20595;-59
2022/11/08 11:34:42;;;;;;;2.23;1.33;;;14.60;37.80;;;;;;5034819;28;20268;-59
2022/11/08 11:37:20;;;;;;;4.00;1.60;;;14.70;6.80;;;;;;5034683;28;20643;-58
2022/11/08 11:39:54;;;;;;;2.63;1.40;;;14.70;1.00;;;;;;5035293;28;20248;-58
2022/11/08 11:42:27;;;;;;;2.57;1.20;;;14.80;1.00;;;;;;5034782;28;20233;-58
2022/11/08 11:45:06;;;;;;;3.33;1.23;;;14.90;1.00;;;;;;5034674;28;20206;-59
2022/11/08 11:47:41;;;;;;;2.70;1.10;;;14.90;1.00;;;;;;5034583;28;20212;-58
2022/11/08 11:50:15;;;;;;;2.63;1.50;;;14.80;1.00;;;;;;5034656;28;20201;-57
2022/11/08 11:52:42;;;;;;;3.47;1.23;;;14.90;1.00;;;;;;5034521;28;20787;-58
2022/11/08 11:55:14;;;;;;;3.67;1.47;;;14.90;1.00;;;;;;5034860;28;20252;-53
2022/11/08 11:57:53;;;;;;;2.87;1.23;;;15.00;12.10;;;;;;5034118;28;20763;-56
2022/11/08 12:00:19;;;;;;;1.67;1.03;;;15.10;1.00;;;;;;5034572;28;20209;-55
2022/11/08 12:03:07;;;;;;;4.07;1.20;;;15.10;1.00;;;;;;5034388;28;20233;-54
2022/11/08 12:05:51;;;;;;;1.50;1.17;;;15.20;1.00;;;;;;5034671;28;20242;-52
2022/11/08 12:08:27;;;;;;;7.63;1.40;;;15.20;1.00;;;;;;5033791;28;20248;-53
2022/11/08 12:11:14;;;;;;;3.43;1.17;;;15.40;1.00;;;;;;5033857;28;20209;-53
2022/11/08 12:13:51;;;;;;;3.80;1.20;;;15.50;1.00;;;;;;5034302;28;20210;-58
2022/11/08 12:16:25;;;;;;;1.47;1.13;;;15.50;1.00;;;;;;5034152;28;20252;-58
2022/11/08 12:19:05;;;;;;;2.47;1.10;;;15.50;1.00;;;;;;5034157;28;20628;-57
2022/11/08 12:21:43;;;;;;;3.60;1.30;;;15.50;1.00;;;;;;5034010;28;20312;-56
2022/11/08 12:24:28;;;;;;;2.43;1.13;;;15.60;1.00;;;;;;5033982;28;20206;-55
2022/11/08 12:27:04;;;;;;;2.47;1.43;;;15.60;1.00;;;;;;5033944;28;20202;-58
2022/11/08 12:29:38;;;;;;;2.50;1.27;;;15.60;1.00;;;;;;5033535;28;20205;-56
2022/11/08 12:32:27;;;;;;;5.07;1.83;;;15.60;1.00;;;;;;5034217;28;20222;-55
2022/11/08 12:35:08;;;;;;;2.40;1.50;;;15.80;1.00;;;;;;5033611;28;20228;-59
2022/11/08 12:37:49;;;;;;;3.27;1.33;;;15.80;1.00;;;;;;5033785;28;20221;-57
2022/11/08 12:40:19;;;;;;;3.30;1.60;;;15.80;1.00;;;;;;5033646;28;20287;-59
2022/11/08 12:43:00;;;;;;;5.07;1.33;;;15.80;99.90;;;;;;5033652;28;20244;-59
2022/11/08 12:45:51;;;;;;;4.37;1.40;;;15.80;1.00;;;;;;5033747;28;20263;-59
2022/11/08 12:48:30;;;;;;;3.73;1.53;;;15.70;1.00;;;;;;5033639;28;20248;-57
2022/11/08 12:51:05;;;;;;;1.90;1.13;;;15.50;1.00;;;;;;5033602;28;20237;-59
2022/11/08 12:53:47;;;;;;;3.67;1.10;;;15.40;1.00;;;;;;5033661;28;20225;-58
2022/11/08 12:56:18;;;;;;;4.00;1.20;;;15.50;1.00;;;;;;5033060;28;20233;-59
2022/11/08 12:58:48;;;;;;;2.47;1.23;;;15.50;1.00;;;;;;5031934;28;20210;-63
2022/11/08 13:01:18;;;;;;;2.17;1.40;;;15.50;1.00;;;;;;5032133;28;20218;-60
2022/11/08 13:04:20;;;;;;;1.63;1.23;;;15.60;1.00;;;;;;5032245;28;20199;-62
2022/11/08 13:06:55;;;;;;;1.57;1.23;;;15.70;1.00;;;;;;5030500;28;20213;-59
2022/11/08 13:09:38;;;;;;;1.80;1.13;;;15.60;1.00;;;;;;5032317;28;20669;-60
2022/11/08 13:12:16;;;;;;;2.43;1.30;;;15.60;1.00;;;;;;5033158;28;20348;-59
2022/11/08 13:14:42;;;;;;;6.53;1.60;;;15.60;1.00;;;;;;5032553;28;20206;-57
2022/11/08 13:17:18;;;;;;;3.57;1.40;;;15.60;1.00;;;;;;5032650;28;20284;-60
2022/11/08 13:19:57;;;;;;;3.17;1.43;;;15.60;1.00;;;;;;5020238;28;20218;-59
2022/11/08 13:22:46;;;;;;;5.17;1.30;;;15.70;1.00;;;;;;5031367;28;20600;-61
2022/11/08 13:25:34;;;;;;;2.33;1.10;;;15.80;1.00;;;;;;5032266;28;20202;-62